createdAt,value
2023-04-09T00:01:09.512Z,96878.28
2023-04-09T00:05:22.182Z,96878.22
2023-04-09T00:09:34.666Z,96866.78
2023-04-09T00:13:47.115Z,96864.97
2023-04-09T00:18:00.485Z,96862.03
2023-04-09T00:22:18.780Z,96866.69
2023-04-09T00:26:32.329Z,96858.50
2023-04-09T00:30:54.733Z,96870.56
2023-04-09T00:35:07.466Z,96866.28
2023-04-09T00:39:20.105Z,96866.69
2023-04-09T00:43:32.545Z,96857.34
2023-04-09T00:47:47.105Z,96854.19
2023-04-09T00:51:59.713Z,96863.19
2023-04-09T00:56:13.193Z,96857.34
2023-04-09T01:00:25.741Z,96870.63
2023-04-09T01:04:43.228Z,96857.66
2023-04-09T01:09:24.336Z,96867.50
2023-04-09T01:13:54.641Z,96854.25
2023-04-09T01:18:32.907Z,96859.28
2023-04-09T01:22:57.482Z,96861.28
2023-04-09T01:27:10.558Z,96848.72
2023-04-09T01:31:30.958Z,96854.25
2023-04-09T01:35:47.173Z,96850.00
2023-04-09T01:40:00.219Z,96853.94
2023-04-09T01:44:13.759Z,96848.41
2023-04-09T01:48:27.298Z,96855.09
2023-04-09T01:52:40.157Z,96859.34
2023-04-09T01:56:52.604Z,96859.06
2023-04-09T02:01:17.704Z,96860.56
2023-04-09T02:05:37.184Z,96867.19
2023-04-09T02:09:50.512Z,96861.78
2023-04-09T02:14:05.384Z,96866.03
2023-04-09T02:18:30.103Z,96856.63
2023-04-09T02:22:52.472Z,96841.13
2023-04-09T02:27:08.778Z,96845.38
2023-04-09T02:31:21.269Z,96849.31
2023-04-09T02:35:34.482Z,96841.19
2023-04-09T02:39:56.998Z,96843.91
2023-04-09T02:44:09.456Z,96848.56
2023-04-09T02:48:22.039Z,96855.63
2023-04-09T02:52:34.516Z,96842.75
2023-04-09T02:56:46.941Z,96842.75
2023-04-09T03:00:59.360Z,96843.31
2023-04-09T03:05:11.855Z,96834.69
2023-04-09T03:09:24.313Z,96840.91
2023-04-09T03:13:36.720Z,96847.56
2023-04-09T03:17:49.181Z,96835.63
2023-04-09T03:22:01.677Z,96850.97
2023-04-09T03:26:22.654Z,96841.41
2023-04-09T03:30:45.113Z,96852.78
2023-04-09T03:34:57.667Z,96850.91
2023-04-09T03:39:10.131Z,96854.00
2023-04-09T03:43:24.218Z,96848.91
2023-04-09T03:47:39.509Z,96849.63
2023-04-09T03:51:51.992Z,96862.03
2023-04-09T03:56:04.508Z,96867.41
2023-04-09T04:00:17.230Z,96859.66
2023-04-09T04:04:29.986Z,96856.09
2023-04-09T04:08:42.470Z,96850.69
2023-04-09T04:12:54.973Z,96867.41
2023-04-09T04:17:07.419Z,96857.28
2023-04-09T04:21:19.888Z,96853.00
2023-04-09T04:25:36.357Z,96862.34
2023-04-09T04:30:00.829Z,96871.75
2023-04-09T04:34:13.226Z,96868.59
2023-04-09T04:38:36.013Z,96866.31
2023-04-09T04:42:48.477Z,96863.59
2023-04-09T04:47:01.011Z,96863.19
2023-04-09T04:51:23.478Z,96862.84
2023-04-09T04:55:42.733Z,96867.47
2023-04-09T04:59:55.138Z,96879.22
2023-04-09T05:04:08.095Z,96884.81
2023-04-09T05:08:20.577Z,96879.78
2023-04-09T05:12:33.202Z,96887.66
2023-04-09T05:16:53.601Z,96882.63
2023-04-09T05:21:07.084Z,96888.84
2023-04-09T05:25:19.603Z,96904.41
2023-04-09T05:29:32.052Z,96895.03
2023-04-09T05:33:44.557Z,96901.28
2023-04-09T05:37:56.986Z,96891.19
2023-04-09T05:42:09.407Z,96901.25
2023-04-09T05:46:32.277Z,96887.97
2023-04-09T05:50:55.097Z,96891.38
2023-04-09T05:55:08.869Z,96893.53
2023-04-09T05:59:21.508Z,96891.34
2023-04-09T06:03:34.125Z,96908.06
2023-04-09T06:07:46.637Z,96916.88
2023-04-09T06:11:59.166Z,96915.22
2023-04-09T06:16:11.757Z,96912.81
2023-04-09T06:20:24.270Z,96916.78
2023-04-09T06:24:36.819Z,96910.50
2023-04-09T06:28:49.288Z,96894.75
2023-04-09T06:33:01.803Z,96920.31
2023-04-09T06:37:14.261Z,96920.91
2023-04-09T06:41:27.396Z,96920.19
2023-04-09T06:45:43.408Z,96908.28
2023-04-09T06:49:56.156Z,96913.56
2023-04-09T06:54:08.760Z,96916.00
2023-04-09T06:58:21.883Z,96907.06
2023-04-09T07:02:35.252Z,96915.69
2023-04-09T07:06:48.450Z,96914.56
2023-04-09T07:11:00.914Z,96910.75
2023-04-09T07:15:13.324Z,96913.19
2023-04-09T07:19:26.852Z,96907.44
2023-04-09T07:23:43.289Z,96914.28
2023-04-09T07:27:55.779Z,96906.66
2023-04-09T07:32:08.460Z,96913.53
2023-04-09T07:36:21.150Z,96908.50
2023-04-09T07:40:35.591Z,96917.78
2023-04-09T07:44:48.604Z,96909.19
2023-04-09T07:49:01.505Z,96912.03
2023-04-09T07:53:14.056Z,96911.25
2023-04-09T07:57:27.158Z,96915.97
2023-04-09T08:01:39.741Z,96918.19
2023-04-09T08:05:52.241Z,96915.66
2023-04-09T08:10:05.961Z,96925.38
2023-04-09T08:14:26.518Z,96924.50
2023-04-09T08:18:38.941Z,96928.59
2023-04-09T08:22:51.415Z,96922.09
2023-04-09T08:27:03.966Z,96932.28
2023-04-09T08:31:16.543Z,96934.88
2023-04-09T08:35:31.952Z,96942.28
2023-04-09T08:39:54.462Z,96942.72
2023-04-09T08:44:06.981Z,96944.50
2023-04-09T08:48:30.438Z,96955.97
2023-04-09T08:52:43.926Z,96954.66
2023-04-09T08:56:58.374Z,96953.16
2023-04-09T09:01:23.215Z,96948.50
2023-04-09T09:05:44.820Z,96939.03
2023-04-09T09:10:04.968Z,96939.72
2023-04-09T09:14:27.415Z,96940.78
2023-04-09T09:18:50.885Z,96953.44
2023-04-09T09:23:05.100Z,96961.06
2023-04-09T09:27:41.112Z,96947.31
2023-04-09T09:31:55.951Z,96943.78
2023-04-09T09:36:10.259Z,96946.16
2023-04-09T09:40:29.595Z,96937.47
2023-04-09T09:44:42.446Z,96944.25
2023-04-09T09:48:55.778Z,96959.59
2023-04-09T09:53:10.228Z,96950.91
2023-04-09T09:57:26.927Z,96946.34
2023-04-09T10:01:41.458Z,96944.69
2023-04-09T10:05:54.728Z,96952.69
2023-04-09T10:10:09.081Z,96954.50
2023-04-09T10:14:23.275Z,96940.66
2023-04-09T10:18:36.770Z,96935.00
2023-04-09T10:22:52.603Z,96942.19
2023-04-09T10:27:16.134Z,96945.63
2023-04-09T10:32:03.860Z,96933.06
2023-04-09T10:36:21.057Z,96944.88
2023-04-09T10:40:33.554Z,96949.44
2023-04-09T10:44:46.857Z,96951.81
2023-04-09T10:49:11.192Z,96955.91
2023-04-09T10:53:27.350Z,96949.03
2023-04-09T10:57:39.810Z,96943.00
2023-04-09T11:01:55.536Z,96939.59
2023-04-09T11:06:11.277Z,96940.16
2023-04-09T11:10:24.470Z,96943.44
2023-04-09T11:14:37.290Z,96929.75
2023-04-09T11:18:49.852Z,96932.72
2023-04-09T11:23:02.686Z,96944.94
2023-04-09T11:27:15.089Z,96935.75
2023-04-09T11:31:30.710Z,96927.72
2023-04-09T11:35:43.273Z,96926.97
2023-04-09T11:39:57.820Z,96930.75
2023-04-09T11:44:10.523Z,96938.31
2023-04-09T11:48:25.640Z,96941.69
2023-04-09T11:52:38.344Z,96942.19
2023-04-09T11:56:56.757Z,96942.38
2023-04-09T12:01:09.266Z,96927.13
2023-04-09T12:05:35.910Z,96942.06
2023-04-09T12:09:49.648Z,96926.75
2023-04-09T12:14:06.662Z,96942.09
2023-04-09T12:18:19.162Z,96933.75
2023-04-09T12:22:31.664Z,96938.63
2023-04-09T12:26:46.804Z,96945.09
2023-04-09T12:31:12.716Z,96936.13
2023-04-09T12:35:25.508Z,96934.97
2023-04-09T12:39:38.020Z,96927.88
2023-04-09T12:43:50.742Z,96940.34
2023-04-09T12:48:03.816Z,96929.44
2023-04-09T12:52:16.954Z,96926.94
2023-04-09T12:56:29.919Z,96930.66
2023-04-09T13:00:43.720Z,96936.72
2023-04-09T13:04:56.235Z,96918.81
2023-04-09T13:09:11.845Z,96933.81
2023-04-09T13:13:24.399Z,96932.88
2023-04-09T13:17:36.949Z,96928.41
2023-04-09T13:21:49.435Z,96928.59
2023-04-09T13:26:02.158Z,96931.25
2023-04-09T13:30:15.034Z,96922.56
2023-04-09T13:34:27.490Z,96910.75
2023-04-09T13:38:40.173Z,96905.13
2023-04-09T13:42:52.633Z,96900.94
2023-04-09T13:47:05.207Z,96900.34
2023-04-09T13:51:17.724Z,96911.28
2023-04-09T13:55:31.676Z,96900.22
2023-04-09T13:59:44.760Z,96908.38
2023-04-09T14:03:57.528Z,96893.84
2023-04-09T14:08:10.226Z,96906.41
2023-04-09T14:12:32.704Z,96905.34
2023-04-09T14:16:45.164Z,96904.16
2023-04-09T14:20:59.791Z,96902.66
2023-04-09T14:25:12.276Z,96887.81
2023-04-09T14:29:31.460Z,96897.75
2023-04-09T14:33:43.909Z,96890.00
2023-04-09T14:37:56.779Z,96883.38
2023-04-09T14:42:09.239Z,96897.31
2023-04-09T14:46:22.808Z,96888.69
2023-04-09T14:50:36.963Z,96885.38
2023-04-09T14:54:49.442Z,96885.84
2023-04-09T14:59:11.994Z,96882.63
2023-04-09T15:03:24.829Z,96880.09
2023-04-09T15:07:37.695Z,96883.50
2023-04-09T15:11:50.314Z,96885.00
2023-04-09T15:16:02.791Z,96866.94
2023-04-09T15:20:15.282Z,96876.34
2023-04-09T15:24:27.698Z,96882.84
2023-04-09T15:28:40.370Z,96884.38
2023-04-09T15:32:53.488Z,96893.00
2023-04-09T15:37:06.030Z,96879.38
2023-04-09T15:41:18.786Z,96894.94
2023-04-09T15:45:31.494Z,96883.75
2023-04-09T15:49:44.107Z,96883.84
2023-04-09T15:53:56.827Z,96877.81
2023-04-09T15:58:09.297Z,96874.34
2023-04-09T16:02:31.928Z,96874.75
2023-04-09T16:06:44.388Z,96868.38
2023-04-09T16:10:56.822Z,96858.56
2023-04-09T16:15:10.562Z,96871.34
2023-04-09T16:19:23.025Z,96867.38
2023-04-09T16:23:45.507Z,96858.88
2023-04-09T16:27:57.972Z,96854.97
2023-04-09T16:32:10.598Z,96869.34
2023-04-09T16:36:23.198Z,96864.25
2023-04-09T16:40:45.209Z,96877.22
2023-04-09T16:44:57.714Z,96864.38
2023-04-09T16:49:10.451Z,96868.22
2023-04-09T16:53:22.950Z,96867.44
2023-04-09T16:57:45.418Z,96866.47
2023-04-09T17:01:58.152Z,96866.03
2023-04-09T17:06:10.786Z,96877.28
2023-04-09T17:10:23.264Z,96870.56
2023-04-09T17:14:45.814Z,96872.22
2023-04-09T17:18:58.391Z,96861.22
2023-04-09T17:23:11.135Z,96873.31
2023-04-09T17:27:23.581Z,96884.16
2023-04-09T17:31:36.048Z,96888.81
2023-04-09T17:35:53.782Z,96889.72
2023-04-09T17:40:07.343Z,96888.88
2023-04-09T17:44:20.355Z,96899.56
2023-04-09T17:48:32.991Z,96889.00
2023-04-09T17:52:45.470Z,96897.81
2023-04-09T17:56:58.438Z,96895.28
2023-04-09T18:01:21.597Z,96893.56
2023-04-09T18:05:39.830Z,96893.34
2023-04-09T18:09:52.341Z,96897.72
2023-04-09T18:14:08.666Z,96880.84
2023-04-09T18:18:21.317Z,96910.31
2023-04-09T18:22:34.499Z,96905.00
2023-04-09T18:26:47.327Z,96915.94
2023-04-09T18:30:59.839Z,96921.59
2023-04-09T18:35:22.289Z,96932.09
2023-04-09T18:39:43.555Z,96918.25
2023-04-09T18:43:56.335Z,96942.97
2023-04-09T18:48:09.572Z,96926.56
2023-04-09T18:52:22.805Z,96948.78
2023-04-09T18:56:35.295Z,96943.19
2023-04-09T19:00:54.018Z,96945.81
2023-04-09T19:05:07.900Z,96952.38
2023-04-09T19:09:30.459Z,96941.75
2023-04-09T19:13:42.971Z,96955.13
2023-04-09T19:17:56.482Z,96959.50
2023-04-09T19:22:08.986Z,96954.81
2023-04-09T19:26:22.872Z,96955.66
2023-04-09T19:30:35.387Z,96942.41
2023-04-09T19:34:47.845Z,96949.22
2023-04-09T19:39:00.355Z,96938.88
2023-04-09T19:43:15.552Z,96945.88
2023-04-09T19:47:28.926Z,96962.66
2023-04-09T19:51:41.505Z,96961.03
2023-04-09T19:55:54.060Z,96965.47
2023-04-09T20:00:08.596Z,96963.03
2023-04-09T20:04:21.145Z,96957.69
2023-04-09T20:08:33.720Z,96955.38
2023-04-09T20:12:50.856Z,96964.78
2023-04-09T20:17:03.286Z,96970.28
2023-04-09T20:21:16.360Z,96965.97
2023-04-09T20:25:35.065Z,96951.59
2023-04-09T20:29:47.648Z,96949.75
2023-04-09T20:34:00.151Z,96949.41
2023-04-09T20:38:12.689Z,96959.59
2023-04-09T20:42:28.206Z,96955.75
2023-04-09T20:46:40.639Z,96956.53
2023-04-09T20:51:04.764Z,96958.50
2023-04-09T20:55:17.570Z,96965.16
2023-04-09T20:59:29.989Z,96950.75
2023-04-09T21:03:42.578Z,96951.13
2023-04-09T21:07:56.049Z,96949.22
2023-04-09T21:12:12.145Z,96960.94
2023-04-09T21:16:25.559Z,96964.06
2023-04-09T21:20:38.005Z,96968.34
2023-04-09T21:24:57.149Z,96971.47
2023-04-09T21:29:09.668Z,96978.13
2023-04-09T21:33:22.192Z,96975.38
2023-04-09T21:37:35.178Z,96971.53
2023-04-09T21:41:47.796Z,96961.38
2023-04-09T21:46:00.449Z,96974.63
2023-04-09T21:50:13.071Z,96980.09
2023-04-09T21:54:25.499Z,96955.97
2023-04-09T21:58:44.791Z,96980.88
2023-04-09T22:03:04.452Z,96984.75
2023-04-09T22:07:17.077Z,96976.97
2023-04-09T22:11:29.682Z,96978.91
2023-04-09T22:15:42.681Z,96994.13
2023-04-09T22:19:55.260Z,96983.22
2023-04-09T22:24:08.186Z,97008.13
2023-04-09T22:28:30.674Z,97011.63
2023-04-09T22:32:43.176Z,97002.66
2023-04-09T22:36:55.706Z,96991.75
2023-04-09T22:41:08.185Z,96976.56
2023-04-09T22:45:20.636Z,96964.88
2023-04-09T22:49:35.996Z,96969.16
2023-04-09T22:53:48.453Z,96983.13
2023-04-09T22:58:00.981Z,96979.63
2023-04-09T23:02:21.452Z,96972.25
2023-04-09T23:06:33.971Z,96978.84
2023-04-09T23:10:46.432Z,96973.75
2023-04-09T23:14:58.935Z,96976.09
2023-04-09T23:19:12.145Z,96974.13
2023-04-09T23:23:24.641Z,96969.03
2023-04-09T23:27:37.175Z,96969.41
2023-04-09T23:31:49.679Z,96964.75
2023-04-09T23:36:02.233Z,96965.94
2023-04-09T23:40:16.420Z,96970.97
2023-04-09T23:44:29.605Z,96968.63
2023-04-09T23:48:42.140Z,96955.00
2023-04-09T23:53:00.409Z,96961.31
2023-04-09T23:57:13.239Z,96957.38
